Date,TemperatureHighF,TemperatureAvgF,TemperatureLowF,DewpointHighF,DewpointAvgF,DewpointLowF,HumidityHigh,HumidityAvg,HumidityLow,PressureMaxIn,PressureMinIn,WindSpeedMaxMPH,WindSpeedAvgMPH,GustSpeedMaxMPH,PrecipitationSumIn
2013-6-1,62,57,53,59,55,49,100,93,71,0.00,40.00,22,6,32,0.07
2013-6-2,70,58,50,50,47,41,97,70,38,0.00,40.00,12,-9,21,0.00
2013-6-3,76,62,44,52,48,44,100,66,39,0.00,40.00,19,0,27,0.00
2013-6-4,68,64,58,63,59,52,99,85,67,0.00,40.00,13,-3,19,0.00
2013-6-5,69,62,56,60,51,47,99,70,48,0.00,40.00,15,0,22,0.00
2013-6-6,69,62,53,57,53,50,97,75,52,0.00,40.00,16,-1,20,0.00
2013-6-7,75,60,44,54,48,44,99,70,38,0.00,40.00,7,-39,16,0.00
2013-6-8,62,59,56,62,56,50,99,91,68,0.00,40.00,14,7,28,0.97
2013-6-9,66,62,60,62,61,60,99,95,83,0.00,40.00,20,-20,29,0.42
2013-6-10,79,67,58,65,61,58,99,84,58,0.00,40.00,11,5,16,0.00
2013-6-11,86,76,66,73,69,64,97,78,57,0.00,40.00,19,-1,29,0.00
2013-6-12,81,73,61,73,67,56,99,83,59,0.00,40.00,23,-6,30,0.02
2013-6-13,80,68,54,61,56,53,99,71,40,0.00,40.00,7,-28,14,0.00
2013-6-14,80,71,61,70,64,57,99,79,62,0.00,40.00,21,2,35,0.11
2013-6-15,81,71,62,69,66,62,99,86,64,0.00,40.00,19,-3,31,0.14
2013-6-16,86,72,58,67,59,51,99,70,31,0.00,40.00,12,2,14,0.00
2013-6-17,86,71,55,62,56,52,99,65,34,0.00,40.00,17,-28,24,0.00
2013-6-18,87,73,58,62,58,53,99,64,33,0.00,40.00,9,-6,14,0.00
2013-6-19,87,75,58,67,63,58,99,69,49,0.00,40.00,19,-15,27,0.00
2013-6-20,89,77,69,73,70,66,93,78,59,0.00,40.00,20,-24,29,0.00
2013-6-22,79,74,66,72,69,62,99,85,66,0.00,40.00,13,6,26,0.01
2013-6-23,85,74,65,71,67,65,99,80,52,0.00,40.00,22,8,32,0.01
2013-6-24,82,74,66,73,69,65,99,86,61,0.00,40.00,21,6,29,0.24
2013-6-25,87,78,70,76,71,58,99,81,46,0.00,40.00,19,6,30,0.04
2013-6-26,91,80,69,75,67,59,99,70,35,0.00,40.00,17,6,24,0.00
2013-6-27,87,75,64,71,67,61,99,79,41,0.00,40.00,12,-16,17,0.03
2013-6-28,85,76,64,68,61,55,94,63,37,0.00,40.00,26,11,35,0.00
2013-6-29,80,71,62,62,59,56,90,68,46,0.00,40.00,21,0,33,0.00
2013-6-30,79,68,51,59,53,49,99,65,36,0.00,40.00,13,-6,17,0.00